Arches Natl Park, Utah
Current Conditions -  °F | °C
As of 5:53 AM on Sunday 23 Nov 2014 (Local Time) from KCNY Reporting Station
Overcast Overcast  
Wind Chill: 25°   Ceiling: 11000
Heat Index: 37°   Visibility: 10mi
Dew Point: 25°   Wind: 25mph
Humidity: 62%   Direction: 280°W
Pressure: 29.89"   Gusts: 32mph
Location:  38.7°N, 109.75°W
Report Text: KCNY 231253Z AUTO 28022G28KT 10SM OVC110 03/M04 A2989 RMK AO2 PK WND 28028/1251 SLP122 T00281039
Loading
Personal Weather Stations






























Interactive Weather Map New forecast layout! Learn more

10-Day Weather Forecast

Advertisements
Track Severe Weather on mobile